Airfield :
LOGIN :

Register | Disclaimer

   EN    FR    IT 

 










Legend :    VFR   Marginal VFR   IFR   Intensive IFR   Very Intensive IFR
Visi :
Ceiling :
>= 8 km
>= 3000ft
5 to 8 km
1000 to 3000 ft
1500m to 5 km
500 to 1000 ft
800 to 1500m
200 to 500 ft
< 800m
< 200 ft
Symbols :   Thunderstorms  Fog  Heavy snow  Heavy precipitations  Wind > 20 kt
SIGMETs :     Misc.  Thunderstorms  Icing  Turbulence  Mountain Waves  Volcanic Ashes






- Airport Elevation : 0 ft


ENQC - Troll C Platform

CURRENT METAR :
  • 240620Z AUTO 30021KT 9999NDV FEW035/// 05/M03 Q1006 W///S/

EXPIRED METARs :
  • 240550Z AUTO 30021KT 9999NDV SCT033/// 05/M03 Q1006 W///S/
  • 240520Z AUTO 30022KT 9999NDV FEW033/// 05/M02 Q1006 W///S/
  • 240450Z AUTO 29025KT 9999NDV SCT031/// 05/M01 Q1005 W///S/
  • 240420Z AUTO 30024KT 9999NDV SCT026/// 05/00 Q1005 W///S/
  • 240350Z AUTO 30023KT 9999NDV SCT024/// 05/00 Q1005 W///S/
  • 240320Z AUTO 30021KT 9999NDV FEW016/// SCT026/// BKN079/// 05/01 Q1005 W///S/

TAF N/A



MET'MAP, your aeronautical weather chart ! - Copyright ORBIFLY December 2007 - Disclaimer

ORBIFLY MET'MAP TEAM :

Programming & Development : Alexandra Zaïnal
Concept & original design : Baudouin d'Aumeries
Assistance for programming : Marc-Olivier Méhu
Technical & hardware support : Manuel Goepfert

Contact : metmap@orbifly.com




SOURCES & CREDITS :

   NOAA